createdAt,value
2019-02-25T00:00:31.574Z,90.00
2019-02-25T00:03:01.284Z,89.77
2019-02-25T00:05:30.871Z,102.00
2019-02-25T00:08:00.617Z,84.83
2019-02-25T00:10:30.229Z,96.63
2019-02-25T00:12:59.857Z,104.50
2019-02-25T00:15:30.829Z,113.00
2019-02-25T00:18:00.501Z,106.60
2019-02-25T00:20:30.110Z,109.10
2019-02-25T00:22:59.722Z,117.53
2019-02-25T00:25:31.862Z,116.23
2019-02-25T00:28:01.481Z,116.00
2019-02-25T00:30:31.089Z,135.57
2019-02-25T00:33:02.011Z,132.70
2019-02-25T00:35:34.182Z,135.53
2019-02-25T00:38:03.792Z,137.27
2019-02-25T00:40:33.413Z,149.23
2019-02-25T00:43:05.453Z,143.67
2019-02-25T00:45:35.065Z,148.37
2019-02-25T00:48:04.691Z,153.43
2019-02-25T00:50:34.299Z,149.90
2019-02-25T00:53:03.945Z,156.60
2019-02-25T00:55:33.611Z,166.83
2019-02-25T00:58:04.586Z,165.97
2019-02-25T01:00:34.211Z,160.33
2019-02-25T01:03:03.838Z,170.93
2019-02-25T01:05:33.581Z,169.03
2019-02-25T01:08:07.695Z,178.77
2019-02-25T01:10:35.328Z,175.80
2019-02-25T01:13:06.202Z,159.77
2019-02-25T01:15:38.243Z,158.73
2019-02-25T01:18:07.888Z,176.87
2019-02-25T01:20:37.495Z,168.43
2019-02-25T01:23:07.101Z,165.27
2019-02-25T01:25:36.780Z,157.03
2019-02-25T01:28:06.433Z,158.97
2019-02-25T01:30:37.313Z,159.27
2019-02-25T01:33:06.942Z,169.73
2019-02-25T01:35:36.606Z,162.57
2019-02-25T01:38:06.240Z,154.67
2019-02-25T01:40:35.858Z,164.53
2019-02-25T01:43:08.030Z,169.30
2019-02-25T01:45:37.634Z,160.57
2019-02-25T01:48:07.241Z,153.40
2019-02-25T01:50:36.900Z,141.43
2019-02-25T01:53:06.526Z,157.57
2019-02-25T01:55:36.144Z,145.50
2019-02-25T01:58:05.784Z,156.17
2019-02-25T02:00:35.409Z,155.17
2019-02-25T02:03:07.527Z,143.00
2019-02-25T02:05:37.125Z,136.13
2019-02-25T02:08:09.215Z,133.37
2019-02-25T02:10:38.832Z,117.37
2019-02-25T02:13:14.164Z,148.13
2019-02-25T02:15:38.150Z,124.80
2019-02-25T02:18:07.789Z,138.67
2019-02-25T02:20:37.413Z,131.23
2019-02-25T02:23:07.936Z,125.30
2019-02-25T02:25:37.545Z,115.53
2019-02-25T02:28:07.165Z,115.23
2019-02-25T02:30:36.826Z,117.83
2019-02-25T02:33:07.725Z,122.13
2019-02-25T02:35:37.334Z,129.40
2019-02-25T02:38:06.944Z,113.30
2019-02-25T02:40:36.630Z,112.07
2019-02-25T02:43:06.233Z,123.73
2019-02-25T02:45:39.992Z,114.47
2019-02-25T02:48:13.684Z,103.40
2019-02-25T02:50:43.329Z,117.00
2019-02-25T02:53:12.967Z,112.43
2019-02-25T02:55:42.642Z,104.57
2019-02-25T02:58:12.257Z,93.50
2019-02-25T03:00:41.924Z,98.90
2019-02-25T03:03:11.573Z,94.10
2019-02-25T03:05:41.251Z,109.20
2019-02-25T03:08:10.875Z,100.33
2019-02-25T03:10:43.008Z,104.00
2019-02-25T03:13:12.682Z,98.23
2019-02-25T03:15:42.309Z,89.03
2019-02-25T03:18:11.913Z,91.87
2019-02-25T03:20:41.573Z,90.17
2019-02-25T03:23:11.185Z,91.10
2019-02-25T03:25:43.377Z,83.40
2019-02-25T03:28:12.994Z,88.63
2019-02-25T03:30:42.617Z,76.90
2019-02-25T03:33:12.263Z,74.37
2019-02-25T03:35:41.876Z,77.43
2019-02-25T03:38:12.344Z,74.33
2019-02-25T03:40:41.961Z,72.53
2019-02-25T03:43:14.035Z,65.20
2019-02-25T03:45:43.643Z,72.13
2019-02-25T03:48:13.312Z,63.00
2019-02-25T03:50:42.930Z,65.07
2019-02-25T03:53:12.572Z,61.50
2019-02-25T03:55:42.258Z,59.43
2019-02-25T03:58:13.081Z,64.03
2019-02-25T04:00:42.745Z,61.20
2019-02-25T04:03:12.393Z,67.83
2019-02-25T04:05:43.211Z,54.50
2019-02-25T04:08:12.837Z,57.80
2019-02-25T04:10:44.954Z,54.70
2019-02-25T04:13:14.570Z,58.67
2019-02-25T04:15:45.206Z,62.43
2019-02-25T04:18:14.828Z,57.10
2019-02-25T04:20:44.428Z,53.83
2019-02-25T04:23:14.157Z,59.47
2019-02-25T04:25:43.847Z,56.40
2019-02-25T04:28:13.437Z,56.60
2019-02-25T04:30:43.101Z,53.73
2019-02-25T04:33:12.717Z,49.23
2019-02-25T04:35:42.332Z,56.70
2019-02-25T04:38:11.969Z,54.07
2019-02-25T04:40:41.589Z,58.23
2019-02-25T04:43:11.185Z,58.97
2019-02-25T04:45:40.850Z,54.93
2019-02-25T04:48:10.478Z,64.67
2019-02-25T04:50:40.125Z,61.13
2019-02-25T04:53:09.757Z,61.77
2019-02-25T04:55:39.365Z,54.90
2019-02-25T04:58:09.035Z,49.20
2019-02-25T05:00:38.650Z,55.00
2019-02-25T05:03:10.845Z,57.60
2019-02-25T05:05:40.469Z,57.53
2019-02-25T05:08:10.091Z,53.90
2019-02-25T05:10:41.034Z,52.03
2019-02-25T05:13:13.104Z,51.20
2019-02-25T05:15:43.438Z,53.27
2019-02-25T05:18:13.072Z,48.93
2019-02-25T05:20:42.702Z,52.77
2019-02-25T05:23:12.306Z,49.23
2019-02-25T05:25:41.946Z,47.83
2019-02-25T05:28:12.805Z,49.23
2019-02-25T05:30:42.424Z,51.13
2019-02-25T05:33:14.547Z,52.27
2019-02-25T05:35:44.223Z,53.33
2019-02-25T05:38:13.847Z,50.77
2019-02-25T05:40:43.472Z,46.63
2019-02-25T05:43:13.302Z,40.43
2019-02-25T05:45:42.999Z,48.20
2019-02-25T05:48:14.036Z,45.77
2019-02-25T05:50:43.744Z,47.13
2019-02-25T05:53:13.622Z,46.47
2019-02-25T05:55:45.852Z,46.50
2019-02-25T05:58:15.551Z,44.60
2019-02-25T06:00:45.181Z,47.67
2019-02-25T06:03:14.926Z,43.33
2019-02-25T06:05:44.653Z,48.97
2019-02-25T06:08:14.525Z,43.47
2019-02-25T06:10:44.168Z,38.40
2019-02-25T06:13:13.894Z,41.27
2019-02-25T06:15:43.680Z,39.23
2019-02-25T06:18:14.505Z,42.13
2019-02-25T06:20:44.221Z,35.50
2019-02-25T06:23:13.837Z,43.60
2019-02-25T06:25:43.443Z,41.23
2019-02-25T06:28:13.085Z,38.37
2019-02-25T06:30:42.706Z,38.93
2019-02-25T06:33:12.336Z,39.97
2019-02-25T06:35:41.997Z,41.97
2019-02-25T06:38:11.706Z,35.10
2019-02-25T06:40:41.314Z,38.40
2019-02-25T06:43:10.933Z,31.80
2019-02-25T06:45:40.570Z,35.93
2019-02-25T06:48:10.197Z,28.63
2019-02-25T06:50:44.581Z,30.40
2019-02-25T06:53:14.264Z,28.10
2019-02-25T06:55:43.874Z,24.40
2019-02-25T06:58:13.801Z,26.73
2019-02-25T07:00:43.466Z,26.10
2019-02-25T07:03:13.208Z,21.50
2019-02-25T07:05:56.049Z,19.00
2019-02-25T07:09:04.394Z,26.10
2019-02-25T07:11:39.462Z,20.30
2019-02-25T07:14:18.435Z,20.70
2019-02-25T07:17:00.407Z,23.97
2019-02-25T07:19:37.287Z,20.60
2019-02-25T07:22:25.441Z,21.87
2019-02-25T07:25:02.864Z,20.40
2019-02-25T07:27:41.973Z,21.83
2019-02-25T07:30:17.488Z,21.57
2019-02-25T07:32:52.498Z,20.33
2019-02-25T07:35:34.084Z,21.73
2019-02-25T07:38:10.085Z,19.00
2019-02-25T07:40:45.011Z,18.70
2019-02-25T07:43:22.926Z,16.63
2019-02-25T07:46:03.858Z,16.27
2019-02-25T07:48:38.578Z,19.10
2019-02-25T07:51:18.577Z,17.40
2019-02-25T07:53:55.642Z,15.50
2019-02-25T07:57:06.950Z,17.63
2019-02-25T07:59:41.826Z,16.33
2019-02-25T08:02:16.572Z,16.47
2019-02-25T08:04:51.643Z,14.17
2019-02-25T08:07:38.520Z,17.80
2019-02-25T08:10:16.087Z,16.13
2019-02-25T08:12:59.206Z,17.17
2019-02-25T08:15:34.000Z,17.53
2019-02-25T08:18:09.861Z,18.63
2019-02-25T08:20:53.861Z,16.00
2019-02-25T08:23:30.094Z,19.33
2019-02-25T08:28:10.746Z,16.80
2019-02-25T08:30:55.098Z,14.97
2019-02-25T08:33:33.948Z,15.27
2019-02-25T08:37:03.628Z,16.10
2019-02-25T08:39:37.514Z,13.63
2019-02-25T08:42:12.704Z,12.47
2019-02-25T08:44:54.355Z,13.07
2019-02-25T08:47:33.474Z,12.27
2019-02-25T08:50:06.113Z,12.60
2019-02-25T08:52:35.722Z,15.63
2019-02-25T08:55:08.291Z,17.77
2019-02-25T08:57:37.943Z,16.50
2019-02-25T09:00:14.224Z,16.53
2019-02-25T09:02:43.848Z,16.00
2019-02-25T09:05:13.666Z,17.17
2019-02-25T09:07:43.296Z,17.47
2019-02-25T09:10:15.796Z,21.80
2019-02-25T09:12:48.875Z,18.20
2019-02-25T09:15:18.506Z,19.47
2019-02-25T09:17:48.358Z,22.67
2019-02-25T09:20:19.240Z,19.97
2019-02-25T09:22:49.325Z,21.60
2019-02-25T09:25:21.320Z,21.90
2019-02-25T09:27:52.385Z,21.63
2019-02-25T09:30:21.999Z,24.40
2019-02-25T09:32:51.613Z,28.03
2019-02-25T09:35:22.445Z,22.80
2019-02-25T09:37:52.037Z,24.90
2019-02-25T09:40:21.653Z,23.77
2019-02-25T09:42:51.277Z,26.07
2019-02-25T09:45:20.883Z,23.13
2019-02-25T09:47:50.509Z,29.93
2019-02-25T09:50:20.140Z,25.53
2019-02-25T09:52:50.965Z,28.97
2019-02-25T09:55:20.561Z,26.97
2019-02-25T09:57:50.251Z,26.73
2019-02-25T10:00:19.859Z,25.10
2019-02-25T10:02:49.472Z,25.40
2019-02-25T10:05:19.097Z,27.73
2019-02-25T10:07:48.749Z,30.57
2019-02-25T10:10:18.421Z,26.77
2019-02-25T10:12:48.025Z,24.43
2019-02-25T10:15:17.682Z,25.77
2019-02-25T10:17:49.785Z,22.53
2019-02-25T10:20:19.378Z,22.73
2019-02-25T10:22:49.001Z,22.93
2019-02-25T10:25:18.614Z,19.90
2019-02-25T10:27:49.835Z,19.60
2019-02-25T10:30:19.038Z,24.17
2019-02-25T10:32:48.625Z,20.97
2019-02-25T10:35:18.829Z,22.17
2019-02-25T10:37:49.687Z,24.00
2019-02-25T10:40:24.563Z,21.90
2019-02-25T10:42:53.026Z,22.30
2019-02-25T10:45:22.637Z,29.80
2019-02-25T10:47:57.745Z,25.63
2019-02-25T10:50:23.164Z,24.30
2019-02-25T10:52:52.785Z,26.13
2019-02-25T10:55:27.255Z,22.97
2019-02-25T10:57:59.786Z,23.17
2019-02-25T11:00:27.703Z,21.37
2019-02-25T11:02:58.180Z,23.13
2019-02-25T11:05:29.919Z,21.07
2019-02-25T11:07:56.707Z,20.33
2019-02-25T11:10:34.738Z,18.93
2019-02-25T11:13:04.401Z,20.97
2019-02-25T11:15:34.429Z,20.17
2019-02-25T11:18:04.279Z,22.03
2019-02-25T11:20:35.470Z,18.90
2019-02-25T11:23:03.591Z,21.17
2019-02-25T11:25:33.287Z,18.37
2019-02-25T11:28:04.948Z,20.10
2019-02-25T11:30:32.593Z,22.13
2019-02-25T11:33:02.270Z,25.77
2019-02-25T11:35:34.048Z,22.33
2019-02-25T11:38:01.777Z,27.27
2019-02-25T11:40:34.096Z,21.33
2019-02-25T11:43:03.325Z,19.80
2019-02-25T11:45:32.931Z,20.13
2019-02-25T11:48:02.596Z,27.77
2019-02-25T11:50:32.213Z,21.43
2019-02-25T11:53:01.858Z,21.57
2019-02-25T11:55:31.976Z,24.07
2019-02-25T11:58:03.171Z,21.97
2019-02-25T12:00:32.799Z,23.13
2019-02-25T12:03:04.889Z,24.20
2019-02-25T12:05:34.485Z,23.27
2019-02-25T12:08:07.856Z,22.77
2019-02-25T12:10:37.469Z,22.20
2019-02-25T12:13:07.073Z,24.53
2019-02-25T12:15:37.933Z,28.50
2019-02-25T12:18:07.555Z,22.77
2019-02-25T12:20:37.173Z,25.27
2019-02-25T12:23:06.801Z,23.27
2019-02-25T12:25:36.454Z,25.30
2019-02-25T12:28:06.053Z,25.97
2019-02-25T12:30:35.669Z,25.40
2019-02-25T12:33:06.524Z,24.37
2019-02-25T12:35:36.136Z,25.23
2019-02-25T12:38:05.736Z,23.87
2019-02-25T12:40:39.032Z,23.70
2019-02-25T12:43:09.863Z,29.83
2019-02-25T12:45:39.469Z,25.40
2019-02-25T12:48:10.297Z,28.23
2019-02-25T12:50:40.004Z,25.73
2019-02-25T12:53:09.598Z,25.30
2019-02-25T12:55:39.210Z,28.57
2019-02-25T12:58:08.856Z,36.00
2019-02-25T13:00:38.453Z,24.67
2019-02-25T13:03:08.152Z,28.30
2019-02-25T13:05:38.086Z,28.87
2019-02-25T13:08:08.169Z,25.33
2019-02-25T13:10:39.089Z,30.05
2019-02-25T13:13:08.736Z,25.23
2019-02-25T13:15:38.349Z,27.10
2019-02-25T13:18:07.978Z,23.87
2019-02-25T13:20:37.621Z,23.37
2019-02-25T13:23:07.299Z,22.83
2019-02-25T13:25:36.918Z,25.87
2019-02-25T13:28:06.605Z,28.07
2019-02-25T13:30:37.426Z,20.83
2019-02-25T13:33:07.048Z,20.67
2019-02-25T13:35:36.723Z,22.50
2019-02-25T13:38:06.448Z,25.03
2019-02-25T13:40:36.094Z,23.17
2019-02-25T13:43:05.753Z,24.17
2019-02-25T13:45:35.377Z,23.70
2019-02-25T13:48:06.253Z,22.60
2019-02-25T13:50:35.892Z,24.17
2019-02-25T13:53:05.729Z,23.17
2019-02-25T13:55:35.513Z,21.37
2019-02-25T13:58:05.147Z,23.10
2019-02-25T14:00:35.985Z,25.50
2019-02-25T14:03:06.788Z,22.23
2019-02-25T14:05:36.503Z,26.37
2019-02-25T14:08:06.186Z,29.17
2019-02-25T14:10:35.857Z,29.33
2019-02-25T14:13:05.487Z,24.63
2019-02-25T14:15:35.129Z,26.10
2019-02-25T14:18:07.253Z,26.33
2019-02-25T14:20:36.897Z,24.77
2019-02-25T14:23:06.505Z,26.13
2019-02-25T14:25:38.406Z,21.73
2019-02-25T14:28:08.278Z,22.70
2019-02-25T14:30:37.546Z,24.83
2019-02-25T14:33:09.574Z,23.47
2019-02-25T14:35:40.546Z,24.80
2019-02-25T14:38:15.317Z,20.77
2019-02-25T14:40:43.858Z,20.00
2019-02-25T14:43:14.822Z,23.13
2019-02-25T14:45:41.893Z,27.13
2019-02-25T14:48:11.304Z,24.13
2019-02-25T14:50:40.362Z,21.70
2019-02-25T14:53:11.569Z,26.03
2019-02-25T14:55:42.929Z,22.90
2019-02-25T14:58:12.536Z,19.20
2019-02-25T15:00:40.249Z,23.77
2019-02-25T15:03:11.101Z,23.27
2019-02-25T15:05:40.774Z,25.40
2019-02-25T15:08:10.403Z,21.07
2019-02-25T15:10:42.709Z,21.57
2019-02-25T15:13:10.624Z,20.30
2019-02-25T15:15:41.714Z,21.13
2019-02-25T15:18:09.875Z,27.10
2019-02-25T15:20:40.809Z,24.27
2019-02-25T15:23:12.736Z,24.87
2019-02-25T15:25:43.164Z,23.90
2019-02-25T15:28:12.010Z,23.70
2019-02-25T15:30:41.081Z,23.10
2019-02-25T15:33:12.033Z,24.40
2019-02-25T15:35:43.826Z,23.33
2019-02-25T15:38:12.725Z,22.37
2019-02-25T15:40:43.593Z,21.33
2019-02-25T15:43:15.812Z,19.07
2019-02-25T15:45:42.905Z,19.00
2019-02-25T15:48:19.206Z,20.63
2019-02-25T15:50:52.837Z,25.87
2019-02-25T15:53:20.918Z,25.70
2019-02-25T15:55:50.542Z,29.33
2019-02-25T15:58:22.729Z,29.43
2019-02-25T16:00:52.341Z,26.93
2019-02-25T16:03:22.062Z,29.73
2019-02-25T16:05:54.477Z,27.70
2019-02-25T16:08:23.839Z,24.20
2019-02-25T16:10:54.025Z,23.17
2019-02-25T16:13:22.957Z,31.83
2019-02-25T16:15:53.881Z,29.50
2019-02-25T16:18:25.331Z,25.33
2019-02-25T16:20:54.643Z,28.77
2019-02-25T16:23:25.778Z,30.27
2019-02-25T16:25:54.903Z,31.23
2019-02-25T16:28:23.700Z,31.30
2019-02-25T16:30:53.393Z,29.50
2019-02-25T16:33:24.136Z,32.50
2019-02-25T16:35:52.755Z,32.10
2019-02-25T16:38:24.907Z,29.37
2019-02-25T16:40:56.604Z,33.30
2019-02-25T16:43:23.466Z,29.80
2019-02-25T16:45:54.361Z,27.70
2019-02-25T16:48:25.964Z,26.93
2019-02-25T16:50:53.688Z,29.50
2019-02-25T16:53:23.521Z,28.60
2019-02-25T16:55:53.400Z,26.77
2019-02-25T16:58:23.069Z,32.77
2019-02-25T17:00:56.212Z,26.57
2019-02-25T17:03:22.408Z,26.90
2019-02-25T17:05:53.382Z,26.50
2019-02-25T17:08:24.009Z,28.97
2019-02-25T17:10:53.955Z,28.50
2019-02-25T17:13:23.566Z,25.63
2019-02-25T17:15:53.214Z,21.70
2019-02-25T17:18:22.857Z,26.67
2019-02-25T17:20:52.506Z,27.03
2019-02-25T17:23:22.778Z,31.03
2019-02-25T17:25:51.842Z,21.27
2019-02-25T17:28:22.661Z,23.57
2019-02-25T17:30:53.671Z,26.30
2019-02-25T17:33:24.018Z,23.63
2019-02-25T17:35:54.231Z,23.87
2019-02-25T17:38:24.644Z,21.43
2019-02-25T17:40:53.608Z,33.33
2019-02-25T17:43:27.378Z,23.17
2019-02-25T17:46:00.335Z,22.30
2019-02-25T17:48:29.179Z,25.93
2019-02-25T17:50:59.909Z,24.10
2019-02-25T17:53:30.529Z,25.93
2019-02-25T17:55:59.852Z,27.17
2019-02-25T17:58:27.835Z,25.83
2019-02-25T18:01:01.079Z,28.30
2019-02-25T18:03:29.546Z,29.50
2019-02-25T18:06:00.695Z,30.27
2019-02-25T18:08:30.430Z,27.17
2019-02-25T18:10:58.604Z,30.07
2019-02-25T18:13:30.669Z,27.63
2019-02-25T18:16:00.323Z,27.73
2019-02-25T18:18:29.954Z,28.73
2019-02-25T18:20:59.609Z,30.20
2019-02-25T18:23:29.202Z,30.70
2019-02-25T18:25:58.895Z,37.57
2019-02-25T18:28:28.503Z,35.10
2019-02-25T18:31:00.234Z,37.27
2019-02-25T18:33:29.124Z,39.17
2019-02-25T18:36:00.243Z,41.77
2019-02-25T18:38:29.625Z,40.30
2019-02-25T18:41:00.322Z,40.20
2019-02-25T18:43:30.986Z,39.10
2019-02-25T18:46:02.278Z,33.00
2019-02-25T18:48:32.886Z,34.47
2019-02-25T18:51:03.629Z,43.27
2019-02-25T18:53:34.321Z,35.37
2019-02-25T18:56:05.243Z,43.27
2019-02-25T18:58:35.449Z,40.53
2019-02-25T19:01:04.525Z,31.90
2019-02-25T19:03:35.443Z,34.97
2019-02-25T19:06:04.133Z,33.53
2019-02-25T19:08:33.771Z,33.90
2019-02-25T19:11:03.433Z,31.07
2019-02-25T19:13:33.062Z,37.17
2019-02-25T19:16:02.802Z,32.53
2019-02-25T19:18:34.421Z,27.73
2019-02-25T19:21:03.817Z,31.87
2019-02-25T19:23:34.955Z,27.07
2019-02-25T19:26:01.434Z,28.60
2019-02-25T19:28:31.041Z,25.77
2019-02-25T19:31:00.689Z,25.83
2019-02-25T19:33:31.287Z,25.90
2019-02-25T19:36:00.577Z,26.40
2019-02-25T19:38:32.037Z,27.03
2019-02-25T19:40:59.246Z,26.90
2019-02-25T19:43:28.821Z,28.60
2019-02-25T19:46:08.142Z,28.53
2019-02-25T19:48:37.962Z,28.00
2019-02-25T19:51:07.620Z,31.47
2019-02-25T19:53:40.266Z,28.17
2019-02-25T19:56:08.641Z,28.33
2019-02-25T19:58:39.298Z,28.93
2019-02-25T20:01:09.021Z,27.77
2019-02-25T20:03:45.675Z,27.53
2019-02-25T20:06:18.581Z,28.43
2019-02-25T20:08:48.734Z,31.70
2019-02-25T20:11:31.769Z,31.93
2019-02-25T20:20:57.613Z,31.67
2019-02-25T20:23:26.668Z,33.37
2019-02-25T20:25:57.733Z,31.87
2019-02-25T20:28:26.814Z,36.63
2019-02-25T20:30:55.193Z,29.93
2019-02-25T20:33:30.408Z,27.17
2019-02-25T20:35:56.771Z,27.13
2019-02-25T20:38:27.065Z,27.47
2019-02-25T20:40:57.878Z,29.43
2019-02-25T20:43:28.203Z,23.23
2019-02-25T20:45:58.554Z,28.77
2019-02-25T20:48:27.570Z,27.97
2019-02-25T20:50:59.691Z,27.63
2019-02-25T20:53:27.426Z,24.57
2019-02-25T20:55:57.162Z,32.17
2019-02-25T20:58:28.393Z,23.50
2019-02-25T21:00:58.737Z,23.87
2019-02-25T21:03:28.373Z,26.87
2019-02-25T21:05:58.438Z,23.23
2019-02-25T21:08:28.398Z,27.23
2019-02-25T21:11:02.476Z,25.53
2019-02-25T21:13:31.797Z,27.83
2019-02-25T21:16:02.564Z,26.87
2019-02-25T21:18:31.066Z,28.13
2019-02-25T21:21:02.947Z,24.67
2019-02-25T21:23:32.756Z,24.10
2019-02-25T21:26:06.347Z,26.07
2019-02-25T21:28:33.606Z,24.90
2019-02-25T21:31:01.953Z,28.63
2019-02-25T21:33:31.837Z,25.27
2019-02-25T21:36:02.770Z,25.80
2019-02-25T21:38:32.404Z,21.77
2019-02-25T21:41:02.006Z,28.53
2019-02-25T21:43:31.620Z,27.43
2019-02-25T21:46:02.005Z,25.60
2019-02-25T21:48:33.082Z,28.43
2019-02-25T21:51:04.302Z,26.00
2019-02-25T21:53:31.868Z,24.93
2019-02-25T21:56:04.951Z,23.83
2019-02-25T21:58:34.060Z,23.20
2019-02-25T22:01:06.223Z,24.50
2019-02-25T22:03:39.449Z,22.80
2019-02-25T22:06:05.435Z,24.30
2019-02-25T22:08:36.141Z,26.27
2019-02-25T22:11:12.525Z,20.07
2019-02-25T22:13:34.418Z,27.20
2019-02-25T22:16:05.603Z,25.47
2019-02-25T22:18:36.345Z,19.70
2019-02-25T22:21:09.227Z,22.43
2019-02-25T22:23:37.064Z,24.30
2019-02-25T22:26:05.222Z,23.20
2019-02-25T22:28:37.014Z,24.87
2019-02-25T22:31:08.279Z,18.43
2019-02-25T22:33:35.513Z,22.57
2019-02-25T22:36:05.402Z,19.03
2019-02-25T22:38:34.998Z,21.20
2019-02-25T22:41:04.621Z,18.07
2019-02-25T22:43:34.350Z,18.00
2019-02-25T22:46:05.423Z,20.37
2019-02-25T22:48:35.718Z,20.33
2019-02-25T22:51:05.187Z,17.23
2019-02-25T22:53:32.837Z,17.60
2019-02-25T22:56:02.512Z,17.57
2019-02-25T22:58:36.225Z,15.77
2019-02-25T23:01:09.477Z,17.63
2019-02-25T23:03:40.961Z,17.63
2019-02-25T23:06:11.198Z,18.27
2019-02-25T23:08:42.097Z,16.83
2019-02-25T23:11:10.371Z,12.50
2019-02-25T23:13:42.776Z,10.57
2019-02-25T23:16:11.058Z,13.50
2019-02-25T23:18:40.640Z,20.27
2019-02-25T23:21:10.282Z,15.27
2019-02-25T23:23:40.124Z,12.73
2019-02-25T23:26:10.439Z,18.03
2019-02-25T23:28:39.227Z,15.13
2019-02-25T23:31:08.815Z,15.40
2019-02-25T23:33:42.083Z,18.87
2019-02-25T23:36:10.969Z,15.97
2019-02-25T23:38:40.239Z,14.60
2019-02-25T23:41:10.569Z,22.43
2019-02-25T23:43:40.302Z,18.13
2019-02-25T23:46:09.137Z,11.93
2019-02-25T23:48:41.270Z,11.30
2019-02-25T23:51:08.462Z,15.33
2019-02-25T23:53:38.106Z,15.83
2019-02-25T23:56:08.897Z,12.73
2019-02-25T23:58:42.358Z,11.63
